Time;durP1;ratioP1;P1;durP2;ratioP2;P2;SDS_P1;SDS_P2;PMS_P1;PMS_P2;Temp;Humidity;BMP_temperature;BMP_pressure;BME280_temperature;BME280_humidity;BME280_pressure;Samples;Min_cycle;Max_cycle;Signal;HPM_P1;HPM_P2
2023/08/01 00:00:11;;;;;;;8.82;3.00;;;16.50;99.90;;;;;;5052507;28;20041;-76
2023/08/01 00:02:58;;;;;;;9.82;2.83;;;16.50;99.90;;;;;;5051262;28;20056;-76
2023/08/01 00:05:44;;;;;;;7.88;2.80;;;16.50;99.90;;;;;;5051126;28;20132;-76
2023/08/01 00:08:31;;;;;;;9.55;2.42;;;16.40;99.90;;;;;;5052026;28;20086;-76
2023/08/01 00:11:17;;;;;;;9.63;2.78;;;16.40;99.90;;;;;;5050944;28;20394;-76
2023/08/01 00:14:03;;;;;;;9.75;3.67;;;16.40;99.90;;;;;;5052047;28;20053;-76
2023/08/01 00:16:50;;;;;;;8.18;2.70;;;16.40;99.90;;;;;;5052358;28;20062;-75
2023/08/01 00:19:37;;;;;;;5.95;3.00;;;16.30;99.90;;;;;;5037161;28;20045;-76
2023/08/01 00:22:23;;;;;;;9.18;2.85;;;16.30;99.90;;;;;;5050948;28;20056;-75
2023/08/01 00:25:10;;;;;;;8.40;2.80;;;16.30;99.90;;;;;;5051596;28;20051;-76
2023/08/01 00:27:56;;;;;;;9.35;3.28;;;16.30;99.90;;;;;;5052209;28;20144;-76
2023/08/01 00:30:42;;;;;;;14.05;4.50;;;16.30;99.90;;;;;;5050787;28;20079;-75
2023/08/01 00:33:28;;;;;;;9.98;3.40;;;16.30;99.90;;;;;;5050533;28;20566;-76
2023/08/01 00:36:14;;;;;;;12.50;4.00;;;16.30;99.90;;;;;;5052008;28;20455;-76
2023/08/01 00:39:01;;;;;;;22.13;5.38;;;16.30;99.90;;;;;;5051885;28;20087;-78
2023/08/01 00:41:47;;;;;;;13.88;4.10;;;16.20;99.90;;;;;;5049857;28;20214;-77
2023/08/01 00:44:33;;;;;;;14.40;3.80;;;16.20;99.90;;;;;;5051980;28;20459;-76
2023/08/01 00:47:19;;;;;;;11.75;4.00;;;16.20;99.90;;;;;;5052194;28;20137;-76
2023/08/01 00:50:06;;;;;;;16.42;4.15;;;16.10;99.90;;;;;;5049688;28;20056;-76
2023/08/01 00:52:53;;;;;;;14.32;3.25;;;16.00;99.90;;;;;;5051013;28;20064;-76
2023/08/01 00:55:39;;;;;;;13.32;4.35;;;16.00;99.90;;;;;;5051211;28;20092;-76
2023/08/01 00:58:25;;;;;;;10.82;3.55;;;16.00;99.90;;;;;;5051953;28;20051;-76
2023/08/01 01:01:12;;;;;;;9.40;3.28;;;15.90;99.90;;;;;;5049808;28;20041;-76
2023/08/01 01:03:58;;;;;;;12.82;4.40;;;15.80;99.90;;;;;;5051177;28;20044;-76
2023/08/01 01:07:03;;;;;;;14.48;3.88;;;15.80;99.90;;;;;;5051634;28;20045;-75
2023/08/01 01:09:50;;;;;;;21.02;5.38;;;15.80;99.90;;;;;;5050350;28;20416;-76
2023/08/01 01:12:36;;;;;;;13.77;4.60;;;15.70;99.90;;;;;;5050927;28;20068;-76
2023/08/01 01:15:22;;;;;;;15.57;4.28;;;15.70;99.90;;;;;;5049536;28;20489;-76
2023/08/01 01:18:08;;;;;;;11.43;3.90;;;15.70;99.90;;;;;;5051529;28;20449;-75
2023/08/01 01:20:54;;;;;;;12.75;4.07;;;15.70;99.90;;;;;;5031338;28;20053;-75
2023/08/01 01:23:42;;;;;;;15.48;4.30;;;15.70;99.90;;;;;;5030593;28;20052;-76
2023/08/01 01:26:28;;;;;;;13.27;4.43;;;15.60;99.90;;;;;;5031654;28;20080;-74
2023/08/01 01:29:15;;;;;;;14.43;4.55;;;15.60;99.90;;;;;;5013267;28;20103;-73
2023/08/01 01:32:02;;;;;;;16.92;4.85;;;15.60;99.90;;;;;;5031484;28;20064;-74
2023/08/01 01:34:49;;;;;;;13.98;4.35;;;15.70;99.90;;;;;;5030426;28;20460;-74
2023/08/01 01:37:35;;;;;;;13.57;4.75;;;15.60;99.90;;;;;;5030999;28;20050;-74
2023/08/01 01:40:21;;;;;;;14.80;4.90;;;15.60;99.90;;;;;;5029817;28;20100;-76
2023/08/01 01:43:07;;;;;;;14.20;4.70;;;15.50;99.90;;;;;;5030589;28;20084;-76
2023/08/01 01:45:53;;;;;;;14.40;4.35;;;15.50;99.90;;;;;;5012137;28;20405;-75
2023/08/01 01:48:42;;;;;;;14.85;4.40;;;15.50;99.90;;;;;;5030563;28;20056;-76
2023/08/01 01:51:30;;;;;;;15.18;4.00;;;15.50;99.90;;;;;;5030790;28;20056;-73
2023/08/01 01:54:16;;;;;;;10.02;4.25;;;15.50;99.90;;;;;;5013205;28;20102;-74
2023/08/01 01:57:02;;;;;;;13.77;4.75;;;15.40;99.90;;;;;;5013285;28;20395;-75
2023/08/01 01:59:49;;;;;;;15.75;4.50;;;15.40;99.90;;;;;;5031250;28;20517;-76
2023/08/01 02:02:35;;;;;;;12.35;4.30;;;15.40;99.90;;;;;;5013961;28;20093;-73
2023/08/01 02:05:21;;;;;;;15.85;5.07;;;15.40;99.90;;;;;;4999860;28;20053;-75
2023/08/01 02:08:08;;;;;;;23.45;4.80;;;15.40;99.90;;;;;;5030757;28;20084;-75
2023/08/01 02:10:57;;;;;;;13.88;4.47;;;15.40;99.90;;;;;;5030502;28;20053;-75
2023/08/01 02:13:44;;;;;;;15.15;4.75;;;15.40;99.90;;;;;;5030722;28;20045;-76
2023/08/01 02:16:30;;;;;;;12.70;3.88;;;15.40;99.90;;;;;;5016818;28;20080;-75
2023/08/01 02:19:16;;;;;;;16.90;4.97;;;15.40;99.90;;;;;;5024971;28;20412;-76
2023/08/01 02:22:02;;;;;;;15.00;4.60;;;15.30;99.90;;;;;;5037238;28;20049;-76
2023/08/01 02:24:48;;;;;;;15.63;3.70;;;15.30;99.90;;;;;;5054466;28;20052;-75
2023/08/01 02:27:34;;;;;;;14.30;5.03;;;15.30;99.90;;;;;;5036547;28;20547;-75
2023/08/01 02:30:20;;;;;;;21.10;5.00;;;15.40;99.90;;;;;;5036710;28;20053;-75
2023/08/01 02:33:06;;;;;;;16.92;5.82;;;15.30;99.90;;;;;;5054410;28;20096;-75
2023/08/01 02:35:53;;;;;;;12.85;4.57;;;15.30;99.90;;;;;;5039833;28;20052;-75
2023/08/01 02:38:39;;;;;;;11.93;6.03;;;15.30;99.90;;;;;;5036978;28;20053;-76
2023/08/01 02:41:25;;;;;;;17.00;4.90;;;15.30;99.90;;;;;;5035617;28;20091;-76
2023/08/01 02:44:11;;;;;;;12.60;5.60;;;15.30;99.90;;;;;;5038200;28;20432;-76
2023/08/01 02:46:57;;;;;;;13.75;5.03;;;15.30;99.90;;;;;;5053822;28;20489;-78
2023/08/01 02:49:43;;;;;;;17.10;5.95;;;15.30;99.90;;;;;;5053370;28;20041;-76
2023/08/01 02:52:30;;;;;;;15.82;4.88;;;15.40;99.90;;;;;;5022088;28;20051;-75
2023/08/01 02:55:16;;;;;;;17.90;5.00;;;15.40;99.90;;;;;;5053986;28;20143;-77
2023/08/01 02:58:02;;;;;;;14.80;5.47;;;15.40;99.90;;;;;;5054009;28;20134;-76
2023/08/01 03:00:48;;;;;;;14.75;5.72;;;15.40;99.90;;;;;;5053802;28;20056;-76
2023/08/01 03:03:35;;;;;;;18.33;4.80;;;15.40;99.90;;;;;;5053365;28;20088;-75
2023/08/01 03:06:21;;;;;;;12.43;5.15;;;15.30;99.90;;;;;;5053336;28;20413;-76
2023/08/01 03:09:08;;;;;;;15.02;5.30;;;15.30;99.90;;;;;;5053791;28;20147;-75
2023/08/01 03:11:54;;;;;;;11.23;4.32;;;15.30;99.90;;;;;;5052845;28;20044;-76
2023/08/01 03:14:41;;;;;;;12.68;4.45;;;15.30;99.90;;;;;;5053576;28;20495;-75
2023/08/01 03:17:27;;;;;;;12.50;4.53;;;15.30;99.90;;;;;;5053101;28;20048;-76
2023/08/01 03:20:14;;;;;;;10.80;3.10;;;15.30;99.90;;;;;;5052808;28;20131;-75
2023/08/01 03:23:00;;;;;;;12.15;3.80;;;15.40;99.90;;;;;;5036015;28;20064;-75
2023/08/01 03:25:46;;;;;;;11.52;3.47;;;15.30;99.90;;;;;;5034349;28;20140;-75
2023/08/01 03:28:32;;;;;;;12.43;3.67;;;15.40;99.90;;;;;;5053214;28;20114;-75
2023/08/01 03:31:18;;;;;;;18.83;4.93;;;15.40;99.90;;;;;;5038231;28;20049;-75
2023/08/01 03:34:04;;;;;;;14.73;3.40;;;15.40;99.90;;;;;;5036293;28;20080;-76
2023/08/01 03:36:50;;;;;;;15.60;3.28;;;15.50;99.90;;;;;;5034269;28;20507;-75
2023/08/01 03:39:36;;;;;;;17.38;3.97;;;15.50;99.90;;;;;;5052524;28;20060;-76
2023/08/01 03:42:22;;;;;;;15.88;4.63;;;15.50;99.90;;;;;;5039632;28;20357;-75
2023/08/01 03:45:10;;;;;;;16.25;3.53;;;15.50;99.90;;;;;;5021354;28;20063;-76
2023/08/01 03:47:56;;;;;;;16.75;3.50;;;15.50;99.90;;;;;;5053671;28;20045;-76
2023/08/01 03:50:42;;;;;;;11.85;2.70;;;15.40;99.90;;;;;;5053332;28;20056;-76
2023/08/01 03:53:28;;;;;;;14.20;2.25;;;15.40;99.90;;;;;;5052881;28;20053;-76
2023/08/01 03:56:14;;;;;;;18.20;3.88;;;15.40;99.90;;;;;;5052370;28;20056;-75
2023/08/01 03:59:00;;;;;;;15.88;2.33;;;15.40;99.90;;;;;;5034459;28;20059;-76
2023/08/01 04:01:46;;;;;;;6.97;1.70;;;15.30;99.90;;;;;;5051631;28;20079;-76
2023/08/01 04:04:32;;;;;;;7.00;1.17;;;15.30;99.90;;;;;;5052906;28;20045;-76
2023/08/01 04:07:20;;;;;;;9.02;2.10;;;15.30;99.90;;;;;;5033900;28;20056;-76
2023/08/01 04:10:07;;;;;;;7.40;1.70;;;15.30;99.90;;;;;;5051911;28;20052;-76
2023/08/01 04:12:56;;;;;;;8.13;1.30;;;15.20;99.90;;;;;;5051937;28;20048;-76
2023/08/01 04:15:42;;;;;;;12.02;1.98;;;15.20;99.90;;;;;;5034940;28;20131;-76
2023/08/01 04:18:28;;;;;;;10.18;2.90;;;15.20;99.90;;;;;;5051889;28;20045;-76
2023/08/01 04:21:15;;;;;;;13.15;1.67;;;15.20;99.90;;;;;;5052312;28;20045;-76
2023/08/01 04:24:01;;;;;;;7.10;2.60;;;15.30;99.90;;;;;;5052899;28;20447;-76
2023/08/01 04:26:47;;;;;;;12.75;1.65;;;15.30;99.90;;;;;;5034636;28;20052;-76
2023/08/01 04:29:34;;;;;;;10.55;1.90;;;15.30;99.90;;;;;;5052239;28;20045;-75
2023/08/01 04:32:20;;;;;;;12.35;1.80;;;15.30;99.90;;;;;;5051478;28;20056;-76
2023/08/01 04:35:07;;;;;;;9.00;2.05;;;15.30;99.90;;;;;;5020369;28;20060;-76
2023/08/01 04:37:53;;;;;;;9.73;1.80;;;15.40;99.90;;;;;;5051333;28;20451;-76
2023/08/01 04:40:39;;;;;;;12.35;1.92;;;15.40;99.90;;;;;;5034614;28;20164;-76
2023/08/01 04:43:25;;;;;;;9.88;2.10;;;15.40;99.90;;;;;;5052160;28;20420;-77
2023/08/01 04:46:11;;;;;;;14.57;2.35;;;15.40;99.90;;;;;;5051871;28;20098;-76
2023/08/01 04:48:58;;;;;;;18.42;3.78;;;15.40;99.90;;;;;;5034029;28;20060;-75
2023/08/01 04:51:45;;;;;;;15.30;3.15;;;15.40;99.90;;;;;;5051168;28;20456;-75
2023/08/01 04:54:31;;;;;;;9.13;2.55;;;15.30;99.90;;;;;;5051804;28;20048;-75
2023/08/01 04:57:17;;;;;;;8.10;1.88;;;15.20;99.90;;;;;;5036421;28;20107;-76
2023/08/01 05:00:04;;;;;;;9.77;2.28;;;15.20;99.90;;;;;;5050640;28;20053;-76
2023/08/01 05:02:50;;;;;;;9.40;2.25;;;15.20;99.90;;;;;;5034078;28;20056;-74
2023/08/01 05:05:36;;;;;;;12.85;3.00;;;15.10;99.90;;;;;;5036543;28;20080;-78
2023/08/01 05:08:22;;;;;;;9.65;2.72;;;15.10;99.90;;;;;;5051719;28;20145;-76
2023/08/01 05:11:09;;;;;;;6.88;1.75;;;15.00;99.90;;;;;;5033131;28;20055;-74
2023/08/01 05:13:55;;;;;;;3.25;1.33;;;15.00;99.90;;;;;;5051230;28;20041;-75
2023/08/01 05:16:41;;;;;;;7.95;1.67;;;14.90;99.90;;;;;;5051115;28;20049;-75
2023/08/01 05:19:27;;;;;;;3.42;1.05;;;14.80;99.90;;;;;;5050746;28;20059;-74
2023/08/01 05:22:13;;;;;;;7.45;1.55;;;14.80;99.90;;;;;;5032403;28;20049;-77
2023/08/01 05:24:59;;;;;;;5.28;1.30;;;14.80;99.90;;;;;;5050409;28;20052;-74
2023/08/01 05:27:45;;;;;;;5.82;1.60;;;14.80;99.90;;;;;;5051171;28;20444;-76
2023/08/01 05:30:32;;;;;;;8.57;1.65;;;14.80;99.90;;;;;;5050950;28;20492;-76
2023/08/01 05:33:18;;;;;;;9.23;2.00;;;14.80;99.90;;;;;;5051226;28;20404;-75
2023/08/01 05:36:05;;;;;;;13.80;2.38;;;14.80;99.90;;;;;;5051532;28;20084;-75
2023/08/01 05:38:51;;;;;;;10.68;2.05;;;14.90;99.90;;;;;;5050932;28;20053;-75
2023/08/01 05:41:37;;;;;;;10.25;2.35;;;14.90;99.90;;;;;;5050140;28;20044;-75
2023/08/01 05:44:23;;;;;;;9.57;1.65;;;14.90;99.90;;;;;;5050423;28;20571;-75
2023/08/01 05:47:09;;;;;;;9.30;2.30;;;15.00;99.90;;;;;;5050935;28;20041;-75
2023/08/01 05:49:56;;;;;;;12.10;2.42;;;15.00;99.90;;;;;;5051013;28;20068;-75
2023/08/01 05:52:42;;;;;;;20.33;4.15;;;15.00;99.90;;;;;;5050672;28;20106;-75
2023/08/01 05:55:28;;;;;;;12.32;2.90;;;15.10;99.90;;;;;;5050159;28;20401;-76
2023/08/01 05:58:15;;;;;;;8.48;2.05;;;15.20;99.90;;;;;;5036419;28;20052;-76
2023/08/01 06:01:01;;;;;;;14.75;2.70;;;15.20;99.90;;;;;;5050365;28;20063;-76
2023/08/01 06:03:47;;;;;;;10.55;2.20;;;15.20;99.90;;;;;;5035529;28;20504;-76
2023/08/01 06:06:34;;;;;;;9.98;2.28;;;15.30;99.90;;;;;;5050132;28;20045;-76
2023/08/01 06:09:20;;;;;;;12.20;3.33;;;15.30;99.90;;;;;;5032643;28;20400;-76
2023/08/01 06:12:06;;;;;;;7.47;1.95;;;15.40;99.90;;;;;;5018451;28;20053;-77
2023/08/01 06:14:53;;;;;;;5.95;1.88;;;15.60;99.90;;;;;;5050447;28;20083;-77
2023/08/01 06:17:39;;;;;;;19.75;1.90;;;15.60;99.90;;;;;;5032579;28;20053;-77
2023/08/01 06:20:25;;;;;;;16.63;1.80;;;15.70;99.90;;;;;;5035216;28;20049;-77
2023/08/01 06:23:11;;;;;;;5.30;1.27;;;15.70;99.90;;;;;;5035583;28;20098;-77
2023/08/01 06:25:58;;;;;;;11.93;1.33;;;15.80;99.90;;;;;;5050561;28;20073;-77
2023/08/01 06:28:45;;;;;;;8.23;2.28;;;16.00;99.90;;;;;;5033185;28;20071;-78
2023/08/01 06:31:31;;;;;;;10.73;1.48;;;16.10;99.90;;;;;;5032211;28;20053;-75
2023/08/01 06:34:18;;;;;;;10.02;1.63;;;16.30;99.90;;;;;;5032566;28;20148;-77
2023/08/01 06:37:04;;;;;;;6.28;1.73;;;16.40;99.90;;;;;;5050167;28;20091;-75
2023/08/01 06:39:50;;;;;;;8.10;1.20;;;16.40;99.90;;;;;;5051064;28;20513;-76
2023/08/01 06:42:36;;;;;;;9.32;1.40;;;16.40;99.90;;;;;;5032809;28;20052;-76
2023/08/01 06:45:23;;;;;;;14.02;1.50;;;16.40;99.90;;;;;;5050169;28;20045;-75
2023/08/01 06:48:09;;;;;;;5.45;1.35;;;16.30;99.90;;;;;;5050389;28;20049;-76
2023/08/01 06:50:55;;;;;;;8.48;1.50;;;16.30;99.90;;;;;;5032571;28;20051;-77
2023/08/01 06:53:42;;;;;;;7.53;1.38;;;16.30;99.90;;;;;;5018746;28;20059;-77
2023/08/01 06:56:29;;;;;;;12.02;1.50;;;16.30;99.90;;;;;;5032339;28;20055;-76
2023/08/01 06:59:15;;;;;;;12.65;2.15;;;16.30;99.90;;;;;;5050174;28;20080;-76
2023/08/01 07:02:01;;;;;;;10.13;1.73;;;16.30;99.90;;;;;;5053401;28;20061;-75
2023/08/01 07:04:48;;;;;;;9.10;1.75;;;16.30;99.90;;;;;;5053451;28;20053;-76
2023/08/01 07:07:34;;;;;;;8.23;1.80;;;16.20;99.90;;;;;;5053371;28;20136;-76
2023/08/01 07:10:20;;;;;;;10.00;1.85;;;16.20;99.90;;;;;;5036458;28;20496;-76
2023/08/01 07:13:06;;;;;;;8.85;1.73;;;16.10;99.90;;;;;;5053226;28;20049;-75
2023/08/01 07:15:52;;;;;;;6.80;1.35;;;16.10;99.90;;;;;;5053512;28;20056;-78
2023/08/01 07:18:38;;;;;;;7.32;1.13;;;16.00;99.90;;;;;;5052358;28;20520;-77
2023/08/01 07:21:24;;;;;;;5.38;1.50;;;15.90;99.90;;;;;;5053531;28;20057;-76
2023/08/01 07:24:11;;;;;;;8.07;1.20;;;15.90;99.90;;;;;;5053177;28;20060;-74
2023/08/01 07:26:57;;;;;;;6.03;1.10;;;15.80;99.90;;;;;;5035271;28;20072;-75
2023/08/01 07:29:43;;;;;;;8.27;1.88;;;15.80;99.90;;;;;;5052789;28;20500;-75
2023/08/01 07:32:29;;;;;;;6.45;1.70;;;15.80;99.90;;;;;;5053093;28;20505;-77
2023/08/01 07:35:15;;;;;;;10.13;2.10;;;15.70;99.90;;;;;;5038426;28;20049;-76
2023/08/01 07:38:01;;;;;;;6.38;1.55;;;15.70;99.90;;;;;;5053170;28;20073;-77
2023/08/01 07:40:47;;;;;;;10.13;1.70;;;15.80;99.90;;;;;;5052926;28;20063;-76
2023/08/01 07:43:33;;;;;;;13.18;2.42;;;15.90;99.90;;;;;;5052963;28;20441;-76
2023/08/01 07:46:19;;;;;;;7.70;2.10;;;16.10;99.90;;;;;;5034985;28;20431;-77
2023/08/01 07:49:05;;;;;;;10.02;1.98;;;16.30;99.90;;;;;;5052458;28;20049;-75
2023/08/01 07:51:52;;;;;;;11.10;2.10;;;16.40;99.90;;;;;;5052727;28;20414;-75
2023/08/01 07:54:38;;;;;;;8.95;2.38;;;16.50;99.90;;;;;;5052900;28;20112;-77
2023/08/01 07:57:24;;;;;;;12.38;2.05;;;16.60;99.90;;;;;;5052608;28;20132;-77
2023/08/01 08:00:11;;;;;;;8.27;2.30;;;16.70;99.90;;;;;;5033827;28;20056;-77
2023/08/01 08:02:57;;;;;;;16.38;3.72;;;16.90;99.90;;;;;;5051910;28;20048;-76
2023/08/01 08:05:43;;;;;;;8.43;1.73;;;16.70;99.90;;;;;;5053352;28;20151;-75
2023/08/01 08:08:29;;;;;;;5.70;1.13;;;16.50;99.90;;;;;;5053710;28;20119;-76
2023/08/01 08:11:16;;;;;;;5.80;1.80;;;16.30;99.90;;;;;;5052073;28;20393;-75
2023/08/01 08:14:02;;;;;;;10.35;1.95;;;16.20;99.90;;;;;;5052758;28;20103;-75
2023/08/01 08:16:48;;;;;;;6.95;1.38;;;16.20;99.90;;;;;;5052552;28;20059;-75
2023/08/01 08:19:34;;;;;;;7.35;1.50;;;16.10;99.90;;;;;;5034586;28;20048;-76
2023/08/01 08:22:21;;;;;;;11.88;2.08;;;16.10;99.90;;;;;;5052066;28;20056;-76
2023/08/01 08:25:07;;;;;;;11.50;1.70;;;16.20;99.90;;;;;;5052535;28;20423;-77
2023/08/01 08:27:53;;;;;;;7.35;1.60;;;16.20;99.90;;;;;;5034954;28;20056;-76
2023/08/01 08:30:39;;;;;;;8.15;1.35;;;16.30;99.90;;;;;;5034152;28;20041;-77
2023/08/01 08:33:26;;;;;;;5.22;1.40;;;16.40;99.90;;;;;;5051847;28;20049;-78
2023/08/01 08:36:12;;;;;;;11.35;1.80;;;16.60;99.90;;;;;;5034772;28;20114;-76
2023/08/01 08:39:00;;;;;;;20.00;2.75;;;16.70;99.90;;;;;;5020325;28;20052;-76
2023/08/01 08:41:54;;;;;;;17.65;2.20;;;16.50;99.90;;;;;;5051545;28;20049;-75
2023/08/01 08:44:44;;;;;;;9.63;2.35;;;16.40;99.90;;;;;;5052432;28;20056;-75
2023/08/01 08:47:35;;;;;;;12.85;2.80;;;16.30;99.90;;;;;;5051890;28;20068;-77
2023/08/01 08:50:24;;;;;;;13.80;1.80;;;16.20;99.90;;;;;;5051817;28;20404;-74
2023/08/01 08:53:12;;;;;;;6.50;1.95;;;16.20;99.90;;;;;;5034048;28;20479;-76
2023/08/01 08:56:00;;;;;;;6.25;1.50;;;16.40;99.90;;;;;;5051878;28;20134;-77
2023/08/01 08:58:47;;;;;;;7.75;1.45;;;16.40;99.90;;;;;;5050807;28;20511;-74
2023/08/01 09:01:34;;;;;;;9.18;1.92;;;16.70;99.90;;;;;;5034064;28;20057;-75
2023/08/01 09:04:20;;;;;;;6.47;2.15;;;17.20;99.90;;;;;;5050556;28;20064;-76
2023/08/01 09:07:11;;;;;;;7.18;1.85;;;17.30;99.90;;;;;;5051310;28;20052;-75
2023/08/01 09:09:57;;;;;;;9.35;1.50;;;17.30;99.90;;;;;;5051322;28;20052;-76
2023/08/01 09:12:43;;;;;;;9.57;2.00;;;17.40;99.90;;;;;;5051389;28;20049;-76
2023/08/01 09:15:30;;;;;;;7.82;1.52;;;17.40;99.90;;;;;;5051530;28;20127;-77
2023/08/01 09:18:17;;;;;;;9.25;1.60;;;17.60;99.90;;;;;;5035980;28;20049;-74
2023/08/01 09:21:04;;;;;;;7.95;1.20;;;17.80;99.90;;;;;;5033278;28;20049;-75
2023/08/01 09:23:51;;;;;;;11.23;1.60;;;18.00;99.90;;;;;;5051170;28;20057;-76
2023/08/01 09:26:38;;;;;;;8.68;2.05;;;18.40;99.90;;;;;;5050952;28;20084;-76
2023/08/01 09:29:25;;;;;;;11.38;2.10;;;18.80;99.90;;;;;;5050339;28;20049;-76
2023/08/01 09:32:13;;;;;;;5.85;1.23;;;19.20;99.90;;;;;;5051032;28;20048;-77
2023/08/01 09:35:00;;;;;;;7.50;1.60;;;18.80;99.90;;;;;;5051060;28;20129;-77
2023/08/01 09:37:46;;;;;;;10.13;2.38;;;18.40;99.90;;;;;;5033746;28;20492;-76
2023/08/01 09:40:39;;;;;;;11.02;2.13;;;18.20;99.90;;;;;;5051624;28;20053;-77
2023/08/01 09:43:37;;;;;;;9.75;1.75;;;18.10;99.90;;;;;;5051404;28;20098;-77
2023/08/01 09:46:24;;;;;;;10.50;1.88;;;18.10;99.90;;;;;;5050747;28;20462;-78
2023/08/01 09:49:12;;;;;;;11.77;1.65;;;18.20;99.90;;;;;;5032746;28;20103;-77
2023/08/01 09:51:59;;;;;;;5.97;1.95;;;18.30;99.90;;;;;;5050076;28;20067;-75
2023/08/01 09:54:45;;;;;;;11.48;1.88;;;18.60;99.90;;;;;;5050301;28;20116;-75
2023/08/01 09:57:32;;;;;;;16.23;2.47;;;19.00;99.90;;;;;;5033201;28;20052;-76
2023/08/01 10:00:19;;;;;;;7.30;1.67;;;19.00;99.90;;;;;;5032513;28;20111;-77
2023/08/01 10:03:06;;;;;;;11.45;1.70;;;19.20;99.90;;;;;;5049954;28;20053;-76
2023/08/01 10:05:54;;;;;;;9.32;1.65;;;19.40;99.90;;;;;;5033004;28;20056;-76
2023/08/01 10:08:41;;;;;;;10.70;1.73;;;19.50;99.90;;;;;;5050438;28;20099;-77
2023/08/01 10:11:29;;;;;;;7.57;2.03;;;19.30;99.90;;;;;;5050611;28;20053;-76
2023/08/01 10:14:16;;;;;;;9.13;1.70;;;19.20;99.90;;;;;;5050956;28;20049;-76
2023/08/01 10:17:03;;;;;;;8.27;1.55;;;19.40;99.90;;;;;;5033310;28;20053;-77
2023/08/01 10:19:51;;;;;;;9.77;2.33;;;19.40;99.90;;;;;;5050092;28;20077;-76
2023/08/01 10:22:38;;;;;;;9.73;1.65;;;19.50;99.90;;;;;;5033283;28;20106;-77
2023/08/01 10:25:26;;;;;;;8.30;1.65;;;19.60;99.90;;;;;;5050075;28;20060;-76
2023/08/01 10:28:12;;;;;;;9.02;1.95;;;20.00;99.90;;;;;;5050701;28;20159;-76
2023/08/01 10:31:11;;;;;;;5.82;1.60;;;20.30;99.90;;;;;;5031616;28;20049;-76
2023/08/01 10:34:06;;;;;;;11.70;1.90;;;20.60;99.90;;;;;;5032420;28;20079;-77
2023/08/01 10:36:57;;;;;;;11.40;2.58;;;20.70;99.90;;;;;;5036353;28;20053;-77
2023/08/01 10:39:43;;;;;;;8.77;1.50;;;20.70;99.90;;;;;;5054159;28;20107;-77
2023/08/01 10:42:43;;;;;;;9.07;1.75;;;20.70;99.90;;;;;;5054302;28;20094;-76
2023/08/01 10:45:29;;;;;;;9.32;1.70;;;20.70;99.90;;;;;;5054727;28;20079;-77
2023/08/01 10:48:15;;;;;;;8.65;1.77;;;20.60;99.90;;;;;;5053744;28;20053;-76
2023/08/01 10:51:03;;;;;;;6.35;1.15;;;20.80;99.90;;;;;;5053925;28;20049;-78
2023/08/01 10:53:50;;;;;;;7.50;1.25;;;20.90;99.90;;;;;;5054097;28;20049;-76
2023/08/01 10:56:37;;;;;;;6.03;1.20;;;20.80;99.90;;;;;;5035460;28;20057;-76
2023/08/01 10:59:23;;;;;;;8.10;1.13;;;20.70;99.90;;;;;;5053794;28;20045;-76
2023/08/01 11:02:09;;;;;;;10.38;2.42;;;20.70;99.90;;;;;;5053891;28;20045;-76
2023/08/01 11:05:03;;;;;;;8.82;1.50;;;20.90;99.90;;;;;;5053662;28;20056;-76
2023/08/01 11:07:55;;;;;;;6.53;1.53;;;21.10;99.90;;;;;;5036348;28;20060;-76
2023/08/01 11:10:49;;;;;;;10.80;2.15;;;21.40;99.90;;;;;;5052993;28;20056;-76
2023/08/01 11:13:35;;;;;;;8.15;1.42;;;21.80;99.90;;;;;;5053961;28;20095;-77
2023/08/01 11:16:22;;;;;;;8.15;1.52;;;21.60;99.90;;;;;;5053298;28;20044;-76
2023/08/01 11:19:24;;;;;;;6.38;1.20;;;21.30;99.90;;;;;;5053096;28;20532;-77
2023/08/01 11:22:11;;;;;;;4.85;1.10;;;21.20;99.90;;;;;;5052884;28;20106;-77
2023/08/01 11:24:58;;;;;;;6.43;1.55;;;21.00;99.90;;;;;;5036273;28;20049;-77
2023/08/01 11:27:44;;;;;;;6.57;1.58;;;21.20;99.90;;;;;;5052828;28;20045;-77
2023/08/01 11:30:32;;;;;;;8.05;1.30;;;21.50;99.90;;;;;;5053260;28;20496;-77
2023/08/01 11:33:24;;;;;;;5.05;1.05;;;21.90;99.90;;;;;;5035556;28;20060;-77
2023/08/01 11:36:10;;;;;;;6.57;1.10;;;21.80;99.90;;;;;;5052425;28;20044;-76
2023/08/01 11:39:00;;;;;;;4.55;0.95;;;21.50;99.90;;;;;;5053263;28;20056;-76
2023/08/01 11:41:46;;;;;;;8.77;1.40;;;21.20;99.90;;;;;;5053098;28;20155;-77
2023/08/01 11:44:32;;;;;;;9.70;2.17;;;21.40;99.90;;;;;;5052713;28;20107;-76
2023/08/01 11:47:19;;;;;;;7.22;1.17;;;21.60;99.90;;;;;;5052200;28;20574;-77
2023/08/01 11:50:06;;;;;;;8.63;1.30;;;21.40;99.90;;;;;;5034902;28;20079;-77
2023/08/01 11:52:52;;;;;;;6.47;1.60;;;21.30;99.90;;;;;;5053018;28;20472;-77
2023/08/01 11:55:38;;;;;;;16.33;2.63;;;21.20;99.90;;;;;;5052920;28;20141;-78
2023/08/01 11:58:32;;;;;;;8.82;2.20;;;21.00;99.90;;;;;;5038288;28;20377;-77
2023/08/01 12:01:19;;;;;;;8.45;1.35;;;21.50;99.90;;;;;;5052473;28;20049;-77
2023/08/01 12:04:05;;;;;;;7.85;1.50;;;21.40;99.90;;;;;;5034568;28;20048;-76
2023/08/01 12:06:51;;;;;;;10.30;1.98;;;21.00;99.90;;;;;;5052475;28;20099;-76
2023/08/01 12:09:37;;;;;;;7.70;1.23;;;20.90;99.90;;;;;;5052184;28;20052;-76
2023/08/01 12:12:24;;;;;;;6.88;1.23;;;21.10;99.90;;;;;;5052294;28;20060;-76
2023/08/01 12:15:10;;;;;;;10.75;1.70;;;21.00;99.90;;;;;;5053067;28;20041;-75
2023/08/01 12:17:57;;;;;;;10.20;1.63;;;20.90;99.90;;;;;;5052883;28;20526;-76
2023/08/01 12:20:43;;;;;;;9.70;1.83;;;20.80;99.90;;;;;;5051982;28;20045;-76
2023/08/01 12:23:29;;;;;;;15.20;2.05;;;20.80;99.90;;;;;;5052861;28;20496;-75
2023/08/01 12:26:15;;;;;;;15.57;1.45;;;20.70;99.90;;;;;;5052336;28;20411;-77
2023/08/01 12:29:01;;;;;;;7.38;1.52;;;20.60;99.90;;;;;;5051846;28;20083;-76
2023/08/01 12:31:48;;;;;;;8.85;1.67;;;20.70;99.90;;;;;;5051586;28;20045;-76
2023/08/01 12:34:35;;;;;;;8.02;1.95;;;21.00;99.90;;;;;;5033454;28;20077;-76
2023/08/01 12:37:21;;;;;;;9.90;1.63;;;21.50;99.90;;;;;;5051248;28;20088;-77
2023/08/01 12:40:07;;;;;;;9.13;1.60;;;21.70;99.90;;;;;;5051754;28;20052;-76
2023/08/01 12:42:54;;;;;;;6.65;1.65;;;22.10;99.90;;;;;;5037117;28;20049;-76
2023/08/01 12:45:40;;;;;;;9.00;1.55;;;22.20;99.90;;;;;;5036972;28;20049;-77
2023/08/01 12:48:27;;;;;;;6.43;1.23;;;22.10;99.90;;;;;;5051876;28;20053;-76
2023/08/01 12:51:14;;;;;;;5.25;1.23;;;22.00;99.90;;;;;;5051555;28;20116;-76
2023/08/01 12:54:00;;;;;;;9.52;1.60;;;22.10;99.90;;;;;;5051040;28;20119;-77
2023/08/01 12:56:46;;;;;;;6.35;1.00;;;22.30;99.90;;;;;;5051050;28;20053;-76
2023/08/01 12:59:32;;;;;;;5.32;1.10;;;22.70;99.90;;;;;;5050501;28;20055;-76
2023/08/01 13:02:18;;;;;;;7.70;1.17;;;22.90;99.90;;;;;;5050817;28;20132;-76
2023/08/01 13:05:05;;;;;;;8.27;2.17;;;23.00;99.90;;;;;;5036620;28;20431;-76
2023/08/01 13:07:51;;;;;;;6.90;1.55;;;22.40;99.90;;;;;;5032952;28;20053;-76
2023/08/01 13:10:39;;;;;;;3.50;0.85;;;22.10;99.90;;;;;;5051695;28;20041;-76
2023/08/01 13:13:25;;;;;;;3.80;0.75;;;21.80;99.90;;;;;;5051870;28;20084;-76
2023/08/01 13:16:11;;;;;;;2.78;0.55;;;21.60;99.90;;;;;;5033282;28;20538;-77
2023/08/01 13:18:57;;;;;;;3.45;0.80;;;21.40;99.90;;;;;;5032381;28;20080;-76
2023/08/01 13:21:43;;;;;;;2.75;0.57;;;21.30;99.90;;;;;;5050461;28;20052;-76
2023/08/01 13:24:29;;;;;;;5.57;0.85;;;21.10;99.90;;;;;;5051145;28;20045;-76
2023/08/01 13:27:15;;;;;;;2.13;0.80;;;21.10;99.90;;;;;;5051038;28;20045;-77
2023/08/01 13:30:02;;;;;;;2.88;0.70;;;21.40;99.90;;;;;;5050589;28;20115;-77
2023/08/01 13:32:48;;;;;;;5.90;1.25;;;22.00;99.90;;;;;;5051754;28;20053;-76
2023/08/01 13:35:35;;;;;;;6.07;0.82;;;22.30;99.90;;;;;;5051104;28;20041;-77
2023/08/01 13:38:21;;;;;;;3.78;0.70;;;22.70;99.90;;;;;;5050948;28;20049;-76
2023/08/01 13:41:07;;;;;;;4.72;0.82;;;23.20;99.90;;;;;;5050519;28;20091;-77
2023/08/01 13:43:53;;;;;;;5.85;0.90;;;23.00;99.90;;;;;;5050835;28;20049;-76
2023/08/01 13:46:39;;;;;;;8.95;1.25;;;22.50;99.90;;;;;;5050002;28;20136;-76
2023/08/01 13:49:25;;;;;;;9.40;1.98;;;22.10;99.90;;;;;;5051039;28;20049;-78
2023/08/01 13:52:11;;;;;;;6.38;1.13;;;22.00;99.90;;;;;;5050473;28;20076;-78
2023/08/01 13:54:57;;;;;;;7.45;1.30;;;21.90;99.90;;;;;;5050695;28;20052;-77
2023/08/01 13:57:43;;;;;;;9.10;1.75;;;22.00;99.90;;;;;;5050369;28;20076;-77
2023/08/01 14:00:29;;;;;;;8.25;1.80;;;21.70;99.90;;;;;;5050701;28;20133;-77
2023/08/01 14:03:15;;;;;;;11.05;1.60;;;21.70;99.90;;;;;;5032684;28;20080;-78
2023/08/01 14:06:09;;;;;;;9.18;2.00;;;21.50;99.90;;;;;;5050889;28;20055;-78
2023/08/01 14:08:55;;;;;;;8.07;1.80;;;21.10;99.90;;;;;;5051660;28;20048;-78
2023/08/01 14:11:41;;;;;;;5.75;1.17;;;21.10;99.90;;;;;;5036259;28;20061;-77
2023/08/01 14:14:27;;;;;;;5.30;0.80;;;22.40;99.90;;;;;;5054786;28;20047;-78
2023/08/01 14:17:13;;;;;;;5.00;0.98;;;23.90;99.90;;;;;;5036866;28;20086;-77
2023/08/01 14:19:59;;;;;;;6.00;1.40;;;23.40;99.90;;;;;;5036328;28;20614;-77
2023/08/01 14:22:46;;;;;;;7.60;1.33;;;22.80;99.90;;;;;;5054194;28;20199;-77